sensor_id;sensor_type;location;lat;lon;timestamp;P1;durP1;ratioP1;P2;durP2;ratioP2
15246;SDS011;7726;48.820;9.248;2022-09-09T00:00:49;4.05;;;1.83;;
15246;SDS011;7726;48.820;9.248;2022-09-09T00:03:21;4.13;;;2.05;;
15246;SDS011;7726;48.820;9.248;2022-09-09T00:05:51;2.42;;;2.10;;
15246;SDS011;7726;48.820;9.248;2022-09-09T00:08:25;7.05;;;2.22;;
15246;SDS011;7726;48.820;9.248;2022-09-09T00:10:56;4.63;;;2.40;;
15246;SDS011;7726;48.820;9.248;2022-09-09T00:13:26;5.75;;;2.70;;
15246;SDS011;7726;48.820;9.248;2022-09-09T00:15:57;5.95;;;2.67;;
15246;SDS011;7726;48.820;9.248;2022-09-09T00:18:28;7.72;;;2.60;;
15246;SDS011;7726;48.820;9.248;2022-09-09T00:20:58;5.10;;;2.70;;
15246;SDS011;7726;48.820;9.248;2022-09-09T00:23:30;7.10;;;2.28;;
15246;SDS011;7726;48.820;9.248;2022-09-09T00:25:59;9.43;;;2.72;;
15246;SDS011;7726;48.820;9.248;2022-09-09T00:28:28;2.83;;;2.40;;
15246;SDS011;7726;48.820;9.248;2022-09-09T00:30:57;4.43;;;2.50;;
15246;SDS011;7726;48.820;9.248;2022-09-09T00:33:28;7.55;;;2.17;;
15246;SDS011;7726;48.820;9.248;2022-09-09T00:35:57;3.20;;;1.90;;
15246;SDS011;7726;48.820;9.248;2022-09-09T00:38:26;4.70;;;1.63;;
15246;SDS011;7726;48.820;9.248;2022-09-09T00:40:56;3.08;;;2.05;;
15246;SDS011;7726;48.820;9.248;2022-09-09T00:43:27;10.43;;;2.10;;
15246;SDS011;7726;48.820;9.248;2022-09-09T00:45:59;4.97;;;1.98;;
15246;SDS011;7726;48.820;9.248;2022-09-09T00:48:31;5.10;;;1.88;;
15246;SDS011;7726;48.820;9.248;2022-09-09T00:51:02;3.50;;;2.00;;
15246;SDS011;7726;48.820;9.248;2022-09-09T00:53:34;3.10;;;1.80;;
15246;SDS011;7726;48.820;9.248;2022-09-09T00:56:09;3.78;;;1.85;;
15246;SDS011;7726;48.820;9.248;2022-09-09T00:58:39;2.95;;;1.50;;
15246;SDS011;7726;48.820;9.248;2022-09-09T01:01:08;6.40;;;1.80;;
15246;SDS011;7726;48.820;9.248;2022-09-09T01:03:38;2.47;;;1.30;;
15246;SDS011;7726;48.820;9.248;2022-09-09T01:06:14;3.17;;;1.50;;
15246;SDS011;7726;48.820;9.248;2022-09-09T01:08:46;3.53;;;1.50;;
15246;SDS011;7726;48.820;9.248;2022-09-09T01:11:20;3.00;;;1.27;;
15246;SDS011;7726;48.820;9.248;2022-09-09T01:13:49;5.60;;;1.70;;
15246;SDS011;7726;48.820;9.248;2022-09-09T01:16:19;1.90;;;1.30;;
15246;SDS011;7726;48.820;9.248;2022-09-09T01:18:49;2.65;;;1.30;;
15246;SDS011;7726;48.820;9.248;2022-09-09T01:21:20;3.40;;;1.48;;
15246;SDS011;7726;48.820;9.248;2022-09-09T01:23:57;5.22;;;1.73;;
15246;SDS011;7726;48.820;9.248;2022-09-09T01:26:33;4.50;;;1.40;;
15246;SDS011;7726;48.820;9.248;2022-09-09T01:29:01;1.40;;;1.10;;
15246;SDS011;7726;48.820;9.248;2022-09-09T01:31:29;2.95;;;1.33;;
15246;SDS011;7726;48.820;9.248;2022-09-09T01:33:57;1.95;;;0.90;;
15246;SDS011;7726;48.820;9.248;2022-09-09T01:36:26;2.55;;;1.17;;
15246;SDS011;7726;48.820;9.248;2022-09-09T01:38:56;3.20;;;0.90;;
15246;SDS011;7726;48.820;9.248;2022-09-09T01:41:23;1.90;;;1.38;;
15246;SDS011;7726;48.820;9.248;2022-09-09T01:43:52;2.28;;;1.20;;
15246;SDS011;7726;48.820;9.248;2022-09-09T01:46:20;3.05;;;1.15;;
15246;SDS011;7726;48.820;9.248;2022-09-09T01:48:48;1.85;;;1.13;;
15246;SDS011;7726;48.820;9.248;2022-09-09T01:51:16;1.88;;;1.23;;
15246;SDS011;7726;48.820;9.248;2022-09-09T01:53:43;3.63;;;0.95;;
15246;SDS011;7726;48.820;9.248;2022-09-09T01:56:15;3.65;;;1.10;;
15246;SDS011;7726;48.820;9.248;2022-09-09T01:58:49;2.97;;;1.17;;
15246;SDS011;7726;48.820;9.248;2022-09-09T02:01:24;1.73;;;1.17;;
15246;SDS011;7726;48.820;9.248;2022-09-09T02:03:56;1.50;;;0.90;;
15246;SDS011;7726;48.820;9.248;2022-09-09T02:06:25;2.40;;;1.08;;
15246;SDS011;7726;48.820;9.248;2022-09-09T02:08:55;3.33;;;1.20;;
15246;SDS011;7726;48.820;9.248;2022-09-09T02:11:23;1.33;;;0.93;;
15246;SDS011;7726;48.820;9.248;2022-09-09T02:13:52;2.35;;;1.40;;
15246;SDS011;7726;48.820;9.248;2022-09-09T02:16:22;1.55;;;1.00;;
15246;SDS011;7726;48.820;9.248;2022-09-09T02:18:51;3.83;;;1.38;;
15246;SDS011;7726;48.820;9.248;2022-09-09T02:21:20;2.42;;;1.30;;
15246;SDS011;7726;48.820;9.248;2022-09-09T02:23:48;3.25;;;1.40;;
15246;SDS011;7726;48.820;9.248;2022-09-09T02:26:17;5.43;;;1.50;;
15246;SDS011;7726;48.820;9.248;2022-09-09T02:28:46;2.58;;;1.30;;
15246;SDS011;7726;48.820;9.248;2022-09-09T02:31:16;4.60;;;1.40;;
15246;SDS011;7726;48.820;9.248;2022-09-09T02:33:47;1.55;;;1.13;;
15246;SDS011;7726;48.820;9.248;2022-09-09T02:36:15;2.00;;;1.30;;
15246;SDS011;7726;48.820;9.248;2022-09-09T02:38:46;1.20;;;1.10;;
15246;SDS011;7726;48.820;9.248;2022-09-09T02:41:17;1.88;;;1.25;;
15246;SDS011;7726;48.820;9.248;2022-09-09T02:43:46;3.58;;;1.20;;
15246;SDS011;7726;48.820;9.248;2022-09-09T02:46:18;2.58;;;1.17;;
15246;SDS011;7726;48.820;9.248;2022-09-09T02:48:50;3.60;;;1.35;;
15246;SDS011;7726;48.820;9.248;2022-09-09T02:51:18;2.33;;;1.27;;
15246;SDS011;7726;48.820;9.248;2022-09-09T02:53:50;2.05;;;1.42;;
15246;SDS011;7726;48.820;9.248;2022-09-09T02:56:21;2.58;;;1.55;;
15246;SDS011;7726;48.820;9.248;2022-09-09T02:58:50;2.72;;;1.40;;
15246;SDS011;7726;48.820;9.248;2022-09-09T03:01:17;3.20;;;1.90;;
15246;SDS011;7726;48.820;9.248;2022-09-09T03:03:44;1.63;;;1.20;;
15246;SDS011;7726;48.820;9.248;2022-09-09T03:06:13;4.30;;;1.58;;
15246;SDS011;7726;48.820;9.248;2022-09-09T03:08:40;2.45;;;1.67;;
15246;SDS011;7726;48.820;9.248;2022-09-09T03:11:12;4.28;;;1.65;;
15246;SDS011;7726;48.820;9.248;2022-09-09T03:13:40;1.55;;;1.40;;
15246;SDS011;7726;48.820;9.248;2022-09-09T03:16:07;2.22;;;1.35;;
15246;SDS011;7726;48.820;9.248;2022-09-09T03:18:34;2.53;;;1.25;;
15246;SDS011;7726;48.820;9.248;2022-09-09T03:21:01;3.17;;;1.58;;
15246;SDS011;7726;48.820;9.248;2022-09-09T03:23:29;2.72;;;1.30;;
15246;SDS011;7726;48.820;9.248;2022-09-09T03:25:57;2.50;;;1.50;;
15246;SDS011;7726;48.820;9.248;2022-09-09T03:28:24;3.00;;;1.10;;
15246;SDS011;7726;48.820;9.248;2022-09-09T03:30:57;2.10;;;1.10;;
15246;SDS011;7726;48.820;9.248;2022-09-09T03:33:25;1.88;;;1.00;;
15246;SDS011;7726;48.820;9.248;2022-09-09T03:35:52;2.40;;;1.15;;
15246;SDS011;7726;48.820;9.248;2022-09-09T03:38:21;2.78;;;1.10;;
15246;SDS011;7726;48.820;9.248;2022-09-09T03:40:51;4.20;;;1.60;;
15246;SDS011;7726;48.820;9.248;2022-09-09T03:43:20;3.15;;;1.30;;
15246;SDS011;7726;48.820;9.248;2022-09-09T03:45:48;3.85;;;1.08;;
15246;SDS011;7726;48.820;9.248;2022-09-09T03:48:15;1.85;;;1.05;;
15246;SDS011;7726;48.820;9.248;2022-09-09T03:50:45;3.60;;;1.15;;
15246;SDS011;7726;48.820;9.248;2022-09-09T03:53:13;1.08;;;0.90;;
15246;SDS011;7726;48.820;9.248;2022-09-09T03:55:43;2.25;;;1.10;;
15246;SDS011;7726;48.820;9.248;2022-09-09T03:58:12;2.53;;;1.08;;
15246;SDS011;7726;48.820;9.248;2022-09-09T04:00:39;2.58;;;1.33;;
15246;SDS011;7726;48.820;9.248;2022-09-09T04:03:07;3.22;;;1.17;;
15246;SDS011;7726;48.820;9.248;2022-09-09T04:05:34;3.10;;;1.25;;
15246;SDS011;7726;48.820;9.248;2022-09-09T04:08:04;3.55;;;1.70;;
15246;SDS011;7726;48.820;9.248;2022-09-09T04:10:31;2.78;;;1.42;;
15246;SDS011;7726;48.820;9.248;2022-09-09T04:12:58;2.15;;;1.10;;
15246;SDS011;7726;48.820;9.248;2022-09-09T04:15:27;4.28;;;1.10;;
15246;SDS011;7726;48.820;9.248;2022-09-09T04:17:54;1.67;;;1.20;;
15246;SDS011;7726;48.820;9.248;2022-09-09T04:20:21;1.77;;;1.63;;
15246;SDS011;7726;48.820;9.248;2022-09-09T04:22:48;2.67;;;1.33;;
15246;SDS011;7726;48.820;9.248;2022-09-09T04:25:15;2.47;;;1.00;;
15246;SDS011;7726;48.820;9.248;2022-09-09T04:27:42;3.15;;;1.35;;
15246;SDS011;7726;48.820;9.248;2022-09-09T04:30:10;4.10;;;1.25;;
15246;SDS011;7726;48.820;9.248;2022-09-09T04:32:39;2.67;;;1.50;;
15246;SDS011;7726;48.820;9.248;2022-09-09T04:35:06;2.20;;;1.10;;
15246;SDS011;7726;48.820;9.248;2022-09-09T04:37:34;0.95;;;0.95;;
15246;SDS011;7726;48.820;9.248;2022-09-09T04:40:01;2.55;;;1.20;;
15246;SDS011;7726;48.820;9.248;2022-09-09T04:42:28;6.10;;;1.40;;
15246;SDS011;7726;48.820;9.248;2022-09-09T04:44:55;1.00;;;1.00;;
15246;SDS011;7726;48.820;9.248;2022-09-09T04:47:23;2.85;;;1.10;;
15246;SDS011;7726;48.820;9.248;2022-09-09T04:49:51;1.83;;;1.20;;
15246;SDS011;7726;48.820;9.248;2022-09-09T04:52:19;1.55;;;1.38;;
15246;SDS011;7726;48.820;9.248;2022-09-09T04:54:46;3.00;;;1.40;;
15246;SDS011;7726;48.820;9.248;2022-09-09T04:57:13;2.45;;;1.30;;
15246;SDS011;7726;48.820;9.248;2022-09-09T04:59:40;2.63;;;1.50;;
15246;SDS011;7726;48.820;9.248;2022-09-09T05:02:08;2.33;;;1.10;;
15246;SDS011;7726;48.820;9.248;2022-09-09T05:04:35;2.15;;;1.30;;
15246;SDS011;7726;48.820;9.248;2022-09-09T05:07:03;1.50;;;1.00;;
15246;SDS011;7726;48.820;9.248;2022-09-09T05:09:31;4.05;;;1.40;;
15246;SDS011;7726;48.820;9.248;2022-09-09T05:11:58;1.92;;;1.58;;
15246;SDS011;7726;48.820;9.248;2022-09-09T05:14:25;4.28;;;1.50;;
15246;SDS011;7726;48.820;9.248;2022-09-09T05:16:53;1.83;;;1.27;;
15246;SDS011;7726;48.820;9.248;2022-09-09T05:19:21;2.13;;;1.48;;
15246;SDS011;7726;48.820;9.248;2022-09-09T05:21:48;1.63;;;1.17;;
15246;SDS011;7726;48.820;9.248;2022-09-09T05:24:17;2.30;;;1.33;;
15246;SDS011;7726;48.820;9.248;2022-09-09T05:26:44;1.80;;;1.38;;
15246;SDS011;7726;48.820;9.248;2022-09-09T05:29:11;1.50;;;1.13;;
15246;SDS011;7726;48.820;9.248;2022-09-09T05:31:39;3.03;;;1.52;;
15246;SDS011;7726;48.820;9.248;2022-09-09T05:34:06;3.88;;;1.75;;
15246;SDS011;7726;48.820;9.248;2022-09-09T05:36:33;3.88;;;1.35;;
15246;SDS011;7726;48.820;9.248;2022-09-09T05:39:00;1.60;;;1.10;;
15246;SDS011;7726;48.820;9.248;2022-09-09T05:41:29;3.30;;;1.38;;
15246;SDS011;7726;48.820;9.248;2022-09-09T05:43:56;3.35;;;1.48;;
15246;SDS011;7726;48.820;9.248;2022-09-09T05:46:26;3.85;;;1.65;;
15246;SDS011;7726;48.820;9.248;2022-09-09T05:48:53;2.28;;;1.27;;
15246;SDS011;7726;48.820;9.248;2022-09-09T05:51:21;2.85;;;1.35;;
15246;SDS011;7726;48.820;9.248;2022-09-09T05:53:49;3.50;;;1.35;;
15246;SDS011;7726;48.820;9.248;2022-09-09T05:56:17;2.25;;;1.38;;
15246;SDS011;7726;48.820;9.248;2022-09-09T05:58:46;3.78;;;1.70;;
15246;SDS011;7726;48.820;9.248;2022-09-09T06:01:14;4.90;;;1.60;;
15246;SDS011;7726;48.820;9.248;2022-09-09T06:03:42;1.33;;;1.20;;
15246;SDS011;7726;48.820;9.248;2022-09-09T06:06:10;2.45;;;1.33;;
15246;SDS011;7726;48.820;9.248;2022-09-09T06:08:39;3.83;;;1.40;;
15246;SDS011;7726;48.820;9.248;2022-09-09T06:11:07;2.67;;;1.40;;
15246;SDS011;7726;48.820;9.248;2022-09-09T06:13:35;2.38;;;1.40;;
15246;SDS011;7726;48.820;9.248;2022-09-09T06:16:05;2.83;;;1.30;;
15246;SDS011;7726;48.820;9.248;2022-09-09T06:18:33;6.15;;;1.50;;
15246;SDS011;7726;48.820;9.248;2022-09-09T06:21:00;4.13;;;1.15;;
15246;SDS011;7726;48.820;9.248;2022-09-09T06:23:29;6.78;;;1.70;;
15246;SDS011;7726;48.820;9.248;2022-09-09T06:26:03;1.73;;;1.40;;
15246;SDS011;7726;48.820;9.248;2022-09-09T06:28:31;3.67;;;1.42;;
15246;SDS011;7726;48.820;9.248;2022-09-09T06:30:58;2.88;;;1.63;;
15246;SDS011;7726;48.820;9.248;2022-09-09T06:33:30;1.67;;;1.20;;
15246;SDS011;7726;48.820;9.248;2022-09-09T06:35:59;3.47;;;1.20;;
15246;SDS011;7726;48.820;9.248;2022-09-09T06:38:27;4.13;;;1.75;;
15246;SDS011;7726;48.820;9.248;2022-09-09T06:40:54;2.65;;;1.23;;
15246;SDS011;7726;48.820;9.248;2022-09-09T06:43:23;4.63;;;1.20;;
15246;SDS011;7726;48.820;9.248;2022-09-09T06:45:54;8.40;;;1.30;;
15246;SDS011;7726;48.820;9.248;2022-09-09T06:48:22;1.35;;;1.20;;
15246;SDS011;7726;48.820;9.248;2022-09-09T06:50:52;3.25;;;1.35;;
15246;SDS011;7726;48.820;9.248;2022-09-09T06:53:26;3.22;;;1.30;;
15246;SDS011;7726;48.820;9.248;2022-09-09T06:55:53;4.00;;;1.70;;
15246;SDS011;7726;48.820;9.248;2022-09-09T06:58:21;4.15;;;1.42;;
15246;SDS011;7726;48.820;9.248;2022-09-09T07:00:48;7.07;;;1.60;;
15246;SDS011;7726;48.820;9.248;2022-09-09T07:03:15;3.63;;;1.60;;
15246;SDS011;7726;48.820;9.248;2022-09-09T07:05:42;2.90;;;1.40;;
15246;SDS011;7726;48.820;9.248;2022-09-09T07:08:11;1.58;;;1.30;;
15246;SDS011;7726;48.820;9.248;2022-09-09T07:10:40;2.83;;;1.10;;
15246;SDS011;7726;48.820;9.248;2022-09-09T07:13:08;2.65;;;1.63;;
15246;SDS011;7726;48.820;9.248;2022-09-09T07:15:35;4.68;;;1.20;;
15246;SDS011;7726;48.820;9.248;2022-09-09T07:18:03;3.63;;;1.40;;
15246;SDS011;7726;48.820;9.248;2022-09-09T07:20:30;2.42;;;1.30;;
15246;SDS011;7726;48.820;9.248;2022-09-09T07:22:57;3.20;;;1.33;;
15246;SDS011;7726;48.820;9.248;2022-09-09T07:25:26;3.85;;;1.42;;
15246;SDS011;7726;48.820;9.248;2022-09-09T07:27:55;6.10;;;1.70;;
15246;SDS011;7726;48.820;9.248;2022-09-09T07:30:22;1.80;;;1.23;;
15246;SDS011;7726;48.820;9.248;2022-09-09T07:32:50;2.30;;;1.23;;
15246;SDS011;7726;48.820;9.248;2022-09-09T07:35:18;3.42;;;1.42;;
15246;SDS011;7726;48.820;9.248;2022-09-09T07:37:45;5.40;;;1.20;;
15246;SDS011;7726;48.820;9.248;2022-09-09T07:40:12;1.45;;;1.17;;
15246;SDS011;7726;48.820;9.248;2022-09-09T07:42:41;3.30;;;1.70;;
15246;SDS011;7726;48.820;9.248;2022-09-09T07:45:08;3.38;;;1.60;;
15246;SDS011;7726;48.820;9.248;2022-09-09T07:47:35;2.08;;;1.27;;
15246;SDS011;7726;48.820;9.248;2022-09-09T07:50:02;3.88;;;1.33;;
15246;SDS011;7726;48.820;9.248;2022-09-09T07:52:30;3.83;;;1.40;;
15246;SDS011;7726;48.820;9.248;2022-09-09T07:54:57;7.60;;;1.70;;
15246;SDS011;7726;48.820;9.248;2022-09-09T07:57:25;5.22;;;1.65;;
15246;SDS011;7726;48.820;9.248;2022-09-09T07:59:54;2.70;;;1.75;;
15246;SDS011;7726;48.820;9.248;2022-09-09T08:02:21;4.28;;;1.52;;
15246;SDS011;7726;48.820;9.248;2022-09-09T08:04:48;4.07;;;1.55;;
15246;SDS011;7726;48.820;9.248;2022-09-09T08:07:16;4.15;;;1.60;;
15246;SDS011;7726;48.820;9.248;2022-09-09T08:09:44;3.75;;;1.20;;
15246;SDS011;7726;48.820;9.248;2022-09-09T08:12:12;3.42;;;1.30;;
15246;SDS011;7726;48.820;9.248;2022-09-09T08:14:39;5.53;;;1.60;;
15246;SDS011;7726;48.820;9.248;2022-09-09T08:17:07;3.58;;;1.60;;
15246;SDS011;7726;48.820;9.248;2022-09-09T08:19:34;6.20;;;1.65;;
15246;SDS011;7726;48.820;9.248;2022-09-09T08:22:02;5.38;;;1.38;;
15246;SDS011;7726;48.820;9.248;2022-09-09T08:24:29;2.97;;;1.10;;
15246;SDS011;7726;48.820;9.248;2022-09-09T08:26:56;12.45;;;1.65;;
15246;SDS011;7726;48.820;9.248;2022-09-09T08:29:23;2.40;;;1.10;;
15246;SDS011;7726;48.820;9.248;2022-09-09T08:31:51;4.68;;;1.20;;
15246;SDS011;7726;48.820;9.248;2022-09-09T08:34:20;1.90;;;0.98;;
15246;SDS011;7726;48.820;9.248;2022-09-09T08:36:48;5.10;;;1.30;;
15246;SDS011;7726;48.820;9.248;2022-09-09T08:39:16;4.85;;;1.35;;
15246;SDS011;7726;48.820;9.248;2022-09-09T08:41:48;3.03;;;1.52;;
15246;SDS011;7726;48.820;9.248;2022-09-09T08:44:22;1.60;;;0.93;;
15246;SDS011;7726;48.820;9.248;2022-09-09T08:46:54;1.98;;;1.17;;
15246;SDS011;7726;48.820;9.248;2022-09-09T08:49:29;3.30;;;1.40;;
15246;SDS011;7726;48.820;9.248;2022-09-09T08:51:59;2.92;;;1.10;;
15246;SDS011;7726;48.820;9.248;2022-09-09T08:54:27;1.90;;;1.10;;
15246;SDS011;7726;48.820;9.248;2022-09-09T08:56:58;1.65;;;1.15;;
15246;SDS011;7726;48.820;9.248;2022-09-09T08:59:25;1.75;;;0.88;;
15246;SDS011;7726;48.820;9.248;2022-09-09T09:01:55;1.35;;;1.00;;
15246;SDS011;7726;48.820;9.248;2022-09-09T09:04:38;2.65;;;1.30;;
15246;SDS011;7726;48.820;9.248;2022-09-09T09:07:12;4.18;;;1.55;;
15246;SDS011;7726;48.820;9.248;2022-09-09T09:09:45;3.38;;;1.20;;
15246;SDS011;7726;48.820;9.248;2022-09-09T09:12:15;1.88;;;1.20;;
15246;SDS011;7726;48.820;9.248;2022-09-09T09:14:42;3.85;;;1.10;;
15246;SDS011;7726;48.820;9.248;2022-09-09T09:17:11;4.03;;;1.50;;
15246;SDS011;7726;48.820;9.248;2022-09-09T09:19:41;2.45;;;1.05;;
15246;SDS011;7726;48.820;9.248;2022-09-09T09:22:11;1.60;;;0.90;;
15246;SDS011;7726;48.820;9.248;2022-09-09T09:24:42;5.43;;;1.38;;
15246;SDS011;7726;48.820;9.248;2022-09-09T09:27:13;1.20;;;0.82;;
15246;SDS011;7726;48.820;9.248;2022-09-09T09:29:41;3.15;;;0.82;;
15246;SDS011;7726;48.820;9.248;2022-09-09T09:32:10;4.18;;;1.15;;
15246;SDS011;7726;48.820;9.248;2022-09-09T09:34:39;2.22;;;0.80;;
15246;SDS011;7726;48.820;9.248;2022-09-09T09:37:11;3.20;;;1.00;;
15246;SDS011;7726;48.820;9.248;2022-09-09T09:39:40;2.53;;;1.10;;
15246;SDS011;7726;48.820;9.248;2022-09-09T09:42:10;2.45;;;0.90;;
15246;SDS011;7726;48.820;9.248;2022-09-09T09:44:39;2.72;;;1.00;;
15246;SDS011;7726;48.820;9.248;2022-09-09T09:47:07;1.00;;;0.80;;
15246;SDS011;7726;48.820;9.248;2022-09-09T09:49:35;1.80;;;0.88;;
15246;SDS011;7726;48.820;9.248;2022-09-09T09:52:03;1.05;;;0.60;;
15246;SDS011;7726;48.820;9.248;2022-09-09T09:54:33;1.08;;;0.60;;
15246;SDS011;7726;48.820;9.248;2022-09-09T09:57:07;0.85;;;0.65;;
15246;SDS011;7726;48.820;9.248;2022-09-09T09:59:35;0.63;;;0.45;;
15246;SDS011;7726;48.820;9.248;2022-09-09T10:02:13;2.33;;;0.80;;
15246;SDS011;7726;48.820;9.248;2022-09-09T10:04:41;1.30;;;0.77;;
15246;SDS011;7726;48.820;9.248;2022-09-09T10:07:10;0.73;;;0.70;;
15246;SDS011;7726;48.820;9.248;2022-09-09T10:09:38;1.83;;;0.80;;
15246;SDS011;7726;48.820;9.248;2022-09-09T10:12:08;1.45;;;0.82;;
15246;SDS011;7726;48.820;9.248;2022-09-09T10:14:43;1.52;;;0.90;;
15246;SDS011;7726;48.820;9.248;2022-09-09T10:17:15;1.65;;;0.80;;
15246;SDS011;7726;48.820;9.248;2022-09-09T10:19:47;2.75;;;0.95;;
15246;SDS011;7726;48.820;9.248;2022-09-09T10:22:23;0.77;;;0.60;;
15246;SDS011;7726;48.820;9.248;2022-09-09T10:27:38;5.55;;;0.90;;
15246;SDS011;7726;48.820;9.248;2022-09-09T10:30:12;2.47;;;1.00;;
15246;SDS011;7726;48.820;9.248;2022-09-09T10:32:45;1.33;;;0.75;;
15246;SDS011;7726;48.820;9.248;2022-09-09T10:35:14;2.53;;;0.90;;
15246;SDS011;7726;48.820;9.248;2022-09-09T10:37:53;1.63;;;0.70;;
15246;SDS011;7726;48.820;9.248;2022-09-09T10:40:26;2.03;;;1.00;;
15246;SDS011;7726;48.820;9.248;2022-09-09T10:42:59;2.95;;;1.00;;
15246;SDS011;7726;48.820;9.248;2022-09-09T10:45:28;1.33;;;0.95;;
15246;SDS011;7726;48.820;9.248;2022-09-09T10:48:09;1.08;;;0.75;;
15246;SDS011;7726;48.820;9.248;2022-09-09T10:50:42;2.75;;;0.90;;
15246;SDS011;7726;48.820;9.248;2022-09-09T10:53:13;1.95;;;1.00;;
15246;SDS011;7726;48.820;9.248;2022-09-09T10:55:42;2.63;;;0.88;;
15246;SDS011;7726;48.820;9.248;2022-09-09T10:58:12;3.03;;;0.90;;
15246;SDS011;7726;48.820;9.248;2022-09-09T11:00:42;1.98;;;0.90;;
15246;SDS011;7726;48.820;9.248;2022-09-09T11:03:13;2.47;;;1.08;;
15246;SDS011;7726;48.820;9.248;2022-09-09T11:05:44;2.70;;;1.05;;
15246;SDS011;7726;48.820;9.248;2022-09-09T11:08:14;1.73;;;1.00;;
15246;SDS011;7726;48.820;9.248;2022-09-09T11:10:44;3.17;;;0.88;;
15246;SDS011;7726;48.820;9.248;2022-09-09T11:13:15;2.63;;;0.73;;
15246;SDS011;7726;48.820;9.248;2022-09-09T11:15:44;3.05;;;0.98;;
15246;SDS011;7726;48.820;9.248;2022-09-09T11:18:13;1.88;;;1.10;;
15246;SDS011;7726;48.820;9.248;2022-09-09T11:20:43;2.50;;;0.95;;
15246;SDS011;7726;48.820;9.248;2022-09-09T11:23:12;1.73;;;0.88;;
15246;SDS011;7726;48.820;9.248;2022-09-09T11:25:41;4.63;;;0.90;;
15246;SDS011;7726;48.820;9.248;2022-09-09T11:28:24;3.65;;;1.00;;
15246;SDS011;7726;48.820;9.248;2022-09-09T11:30:59;2.45;;;0.77;;
15246;SDS011;7726;48.820;9.248;2022-09-09T11:33:35;0.95;;;0.57;;
15246;SDS011;7726;48.820;9.248;2022-09-09T11:36:16;1.80;;;0.85;;
15246;SDS011;7726;48.820;9.248;2022-09-09T11:38:49;2.42;;;0.73;;
15246;SDS011;7726;48.820;9.248;2022-09-09T11:41:17;1.70;;;0.80;;
15246;SDS011;7726;48.820;9.248;2022-09-09T11:43:48;3.80;;;0.60;;
15246;SDS011;7726;48.820;9.248;2022-09-09T11:46:16;2.42;;;0.82;;
15246;SDS011;7726;48.820;9.248;2022-09-09T11:48:44;2.92;;;0.90;;
15246;SDS011;7726;48.820;9.248;2022-09-09T11:51:13;2.83;;;0.77;;
15246;SDS011;7726;48.820;9.248;2022-09-09T11:53:47;1.70;;;0.63;;
15246;SDS011;7726;48.820;9.248;2022-09-09T11:56:23;1.92;;;0.60;;
15246;SDS011;7726;48.820;9.248;2022-09-09T11:58:55;2.95;;;0.80;;
15246;SDS011;7726;48.820;9.248;2022-09-09T12:01:27;0.93;;;0.60;;
15246;SDS011;7726;48.820;9.248;2022-09-09T12:04:01;0.60;;;0.52;;
15246;SDS011;7726;48.820;9.248;2022-09-09T12:06:33;1.63;;;0.60;;
15246;SDS011;7726;48.820;9.248;2022-09-09T12:09:09;1.63;;;0.60;;
15246;SDS011;7726;48.820;9.248;2022-09-09T12:11:39;1.00;;;0.60;;
15246;SDS011;7726;48.820;9.248;2022-09-09T12:14:18;2.05;;;0.50;;
15246;SDS011;7726;48.820;9.248;2022-09-09T12:16:46;1.40;;;0.68;;
15246;SDS011;7726;48.820;9.248;2022-09-09T12:19:13;0.40;;;0.35;;
15246;SDS011;7726;48.820;9.248;2022-09-09T12:21:44;0.57;;;0.30;;
15246;SDS011;7726;48.820;9.248;2022-09-09T12:24:13;0.88;;;0.50;;
15246;SDS011;7726;48.820;9.248;2022-09-09T12:26:42;0.40;;;0.40;;
15246;SDS011;7726;48.820;9.248;2022-09-09T12:29:14;0.32;;;0.20;;
15246;SDS011;7726;48.820;9.248;2022-09-09T12:31:44;1.52;;;0.60;;
15246;SDS011;7726;48.820;9.248;2022-09-09T12:34:14;0.90;;;0.52;;
15246;SDS011;7726;48.820;9.248;2022-09-09T12:36:43;0.40;;;0.25;;
15246;SDS011;7726;48.820;9.248;2022-09-09T12:39:15;1.45;;;0.40;;
15246;SDS011;7726;48.820;9.248;2022-09-09T12:41:50;0.52;;;0.40;;
15246;SDS011;7726;48.820;9.248;2022-09-09T12:44:23;1.95;;;0.60;;
15246;SDS011;7726;48.820;9.248;2022-09-09T12:46:53;2.38;;;0.63;;
15246;SDS011;7726;48.820;9.248;2022-09-09T12:49:25;1.90;;;0.60;;
15246;SDS011;7726;48.820;9.248;2022-09-09T12:51:53;1.60;;;0.57;;
15246;SDS011;7726;48.820;9.248;2022-09-09T12:54:22;1.48;;;0.40;;
15246;SDS011;7726;48.820;9.248;2022-09-09T12:56:49;0.90;;;0.63;;
15246;SDS011;7726;48.820;9.248;2022-09-09T12:59:22;0.73;;;0.47;;
15246;SDS011;7726;48.820;9.248;2022-09-09T13:01:56;2.22;;;0.85;;
15246;SDS011;7726;48.820;9.248;2022-09-09T13:04:23;1.15;;;0.45;;
15246;SDS011;7726;48.820;9.248;2022-09-09T13:06:50;0.65;;;0.55;;
15246;SDS011;7726;48.820;9.248;2022-09-09T13:09:18;1.30;;;0.70;;
15246;SDS011;7726;48.820;9.248;2022-09-09T13:11:46;1.73;;;0.60;;
15246;SDS011;7726;48.820;9.248;2022-09-09T13:14:16;1.38;;;0.50;;
15246;SDS011;7726;48.820;9.248;2022-09-09T13:16:53;1.85;;;0.68;;
15246;SDS011;7726;48.820;9.248;2022-09-09T13:19:22;1.95;;;0.60;;
15246;SDS011;7726;48.820;9.248;2022-09-09T13:21:52;1.10;;;0.70;;
15246;SDS011;7726;48.820;9.248;2022-09-09T13:24:27;1.98;;;0.63;;
15246;SDS011;7726;48.820;9.248;2022-09-09T13:26:55;1.25;;;0.68;;
15246;SDS011;7726;48.820;9.248;2022-09-09T13:29:22;1.85;;;1.00;;
15246;SDS011;7726;48.820;9.248;2022-09-09T13:31:50;2.00;;;0.90;;
15246;SDS011;7726;48.820;9.248;2022-09-09T13:34:29;3.58;;;0.70;;
15246;SDS011;7726;48.820;9.248;2022-09-09T13:36:58;1.48;;;0.60;;
15246;SDS011;7726;48.820;9.248;2022-09-09T13:39:27;1.13;;;0.60;;
15246;SDS011;7726;48.820;9.248;2022-09-09T13:41:54;0.93;;;0.55;;
15246;SDS011;7726;48.820;9.248;2022-09-09T13:44:23;1.35;;;0.60;;
15246;SDS011;7726;48.820;9.248;2022-09-09T13:47:00;2.05;;;0.63;;
15246;SDS011;7726;48.820;9.248;2022-09-09T13:49:30;0.88;;;0.73;;
15246;SDS011;7726;48.820;9.248;2022-09-09T13:52:05;2.00;;;0.80;;
15246;SDS011;7726;48.820;9.248;2022-09-09T13:54:33;1.48;;;0.60;;
15246;SDS011;7726;48.820;9.248;2022-09-09T13:57:00;1.25;;;0.50;;
15246;SDS011;7726;48.820;9.248;2022-09-09T13:59:27;1.13;;;0.60;;
15246;SDS011;7726;48.820;9.248;2022-09-09T14:01:54;0.60;;;0.43;;
15246;SDS011;7726;48.820;9.248;2022-09-09T14:04:22;2.92;;;0.70;;
15246;SDS011;7726;48.820;9.248;2022-09-09T14:06:50;1.27;;;0.60;;
15246;SDS011;7726;48.820;9.248;2022-09-09T14:09:18;2.40;;;0.60;;
15246;SDS011;7726;48.820;9.248;2022-09-09T14:11:45;2.10;;;0.70;;
15246;SDS011;7726;48.820;9.248;2022-09-09T14:14:12;1.88;;;0.85;;
15246;SDS011;7726;48.820;9.248;2022-09-09T14:16:41;2.28;;;0.60;;
15246;SDS011;7726;48.820;9.248;2022-09-09T14:19:08;1.77;;;0.77;;
15246;SDS011;7726;48.820;9.248;2022-09-09T14:21:36;1.10;;;0.90;;
15246;SDS011;7726;48.820;9.248;2022-09-09T14:24:05;0.98;;;0.70;;
15246;SDS011;7726;48.820;9.248;2022-09-09T14:26:32;1.02;;;0.60;;
15246;SDS011;7726;48.820;9.248;2022-09-09T14:28:59;0.90;;;0.45;;
15246;SDS011;7726;48.820;9.248;2022-09-09T14:31:27;1.55;;;0.70;;
15246;SDS011;7726;48.820;9.248;2022-09-09T14:33:54;1.83;;;0.60;;
15246;SDS011;7726;48.820;9.248;2022-09-09T14:36:21;1.85;;;0.60;;
15246;SDS011;7726;48.820;9.248;2022-09-09T14:38:49;1.25;;;0.50;;
15246;SDS011;7726;48.820;9.248;2022-09-09T14:41:18;0.90;;;0.50;;
15246;SDS011;7726;48.820;9.248;2022-09-09T14:43:47;0.82;;;0.68;;
15246;SDS011;7726;48.820;9.248;2022-09-09T14:46:15;3.00;;;0.60;;
15246;SDS011;7726;48.820;9.248;2022-09-09T14:48:43;1.33;;;0.50;;
15246;SDS011;7726;48.820;9.248;2022-09-09T14:51:12;0.38;;;0.38;;
15246;SDS011;7726;48.820;9.248;2022-09-09T14:53:40;0.85;;;0.50;;
15246;SDS011;7726;48.820;9.248;2022-09-09T14:56:08;0.77;;;0.40;;
15246;SDS011;7726;48.820;9.248;2022-09-09T14:58:37;1.92;;;0.57;;
15246;SDS011;7726;48.820;9.248;2022-09-09T15:01:05;1.33;;;0.50;;
15246;SDS011;7726;48.820;9.248;2022-09-09T15:03:32;1.63;;;0.68;;
15246;SDS011;7726;48.820;9.248;2022-09-09T15:06:04;1.40;;;0.63;;
15246;SDS011;7726;48.820;9.248;2022-09-09T15:08:33;0.60;;;0.52;;
15246;SDS011;7726;48.820;9.248;2022-09-09T15:11:00;0.95;;;0.50;;
15246;SDS011;7726;48.820;9.248;2022-09-09T15:13:27;0.60;;;0.43;;
15246;SDS011;7726;48.820;9.248;2022-09-09T15:16:00;0.65;;;0.40;;